sensor_id;sensor_type;location;lat;lon;timestamp;temperature;humidity
74178;DHT22;62540;48.456;-4.456;2023-10-13T00:00:29;21.12;72.60
74178;DHT22;62540;48.456;-4.456;2023-10-13T00:02:56;21.14;72.99
74178;DHT22;62540;48.456;-4.456;2023-10-13T00:05:29;21.17;73.17
74178;DHT22;62540;48.456;-4.456;2023-10-13T00:07:59;21.08;72.54
74178;DHT22;62540;48.456;-4.456;2023-10-13T00:10:29;21.18;72.81
74178;DHT22;62540;48.456;-4.456;2023-10-13T00:12:54;21.18;72.73
74178;DHT22;62540;48.456;-4.456;2023-10-13T00:15:30;21.21;72.70
74178;DHT22;62540;48.456;-4.456;2023-10-13T00:18:04;21.23;72.52
74178;DHT22;62540;48.456;-4.456;2023-10-13T00:20:38;21.20;71.94
74178;DHT22;62540;48.456;-4.456;2023-10-13T00:23:03;21.23;72.56
74178;DHT22;62540;48.456;-4.456;2023-10-13T00:25:29;21.27;72.56
74178;DHT22;62540;48.456;-4.456;2023-10-13T00:28:09;21.32;72.66
74178;DHT22;62540;48.456;-4.456;2023-10-13T00:30:34;21.35;72.43
74178;DHT22;62540;48.456;-4.456;2023-10-13T00:33:00;21.38;72.47
74178;DHT22;62540;48.456;-4.456;2023-10-13T00:35:27;21.38;72.46
74178;DHT22;62540;48.456;-4.456;2023-10-13T00:38:05;21.42;72.65
74178;DHT22;62540;48.456;-4.456;2023-10-13T00:40:42;21.42;72.43
74178;DHT22;62540;48.456;-4.456;2023-10-13T00:43:10;21.45;72.25
74178;DHT22;62540;48.456;-4.456;2023-10-13T00:45:48;21.47;72.27
74178;DHT22;62540;48.456;-4.456;2023-10-13T00:48:24;21.45;72.15
74178;DHT22;62540;48.456;-4.456;2023-10-13T00:51:06;21.44;71.92
74178;DHT22;62540;48.456;-4.456;2023-10-13T00:53:33;21.47;72.25
74178;DHT22;62540;48.456;-4.456;2023-10-13T00:56:01;21.48;72.36
74178;DHT22;62540;48.456;-4.456;2023-10-13T00:58:33;21.51;72.09
74178;DHT22;62540;48.456;-4.456;2023-10-13T01:01:01;21.52;72.20
74178;DHT22;62540;48.456;-4.456;2023-10-13T01:03:47;21.47;72.31
74178;DHT22;62540;48.456;-4.456;2023-10-13T01:06:17;21.45;72.53
74178;DHT22;62540;48.456;-4.456;2023-10-13T01:08:46;21.49;72.71
74178;DHT22;62540;48.456;-4.456;2023-10-13T01:11:17;21.57;72.63
74178;DHT22;62540;48.456;-4.456;2023-10-13T01:13:42;21.54;72.93
74178;DHT22;62540;48.456;-4.456;2023-10-13T01:16:08;21.55;72.89
74178;DHT22;62540;48.456;-4.456;2023-10-13T01:18:34;21.57;73.10
74178;DHT22;62540;48.456;-4.456;2023-10-13T01:21:12;21.59;73.20
74178;DHT22;62540;48.456;-4.456;2023-10-13T01:23:40;21.59;73.19
74178;DHT22;62540;48.456;-4.456;2023-10-13T01:26:07;21.63;73.08
74178;DHT22;62540;48.456;-4.456;2023-10-13T01:28:34;21.66;73.15
74178;DHT22;62540;48.456;-4.456;2023-10-13T01:31:10;21.71;73.12
74178;DHT22;62540;48.456;-4.456;2023-10-13T01:33:38;21.69;73.13
74178;DHT22;62540;48.456;-4.456;2023-10-13T01:36:03;21.65;72.92
74178;DHT22;62540;48.456;-4.456;2023-10-13T01:38:32;21.72;72.98
74178;DHT22;62540;48.456;-4.456;2023-10-13T01:40:58;21.74;73.10
74178;DHT22;62540;48.456;-4.456;2023-10-13T01:43:24;21.76;72.94
74178;DHT22;62540;48.456;-4.456;2023-10-13T01:45:50;21.72;73.11
74178;DHT22;62540;48.456;-4.456;2023-10-13T01:48:16;21.75;72.98
74178;DHT22;62540;48.456;-4.456;2023-10-13T01:50:45;21.69;72.97
74178;DHT22;62540;48.456;-4.456;2023-10-13T01:53:13;21.66;72.92
74178;DHT22;62540;48.456;-4.456;2023-10-13T01:55:43;21.72;72.99
74178;DHT22;62540;48.456;-4.456;2023-10-13T01:58:15;21.72;72.91
74178;DHT22;62540;48.456;-4.456;2023-10-13T02:00:45;21.78;73.00
74178;DHT22;62540;48.456;-4.456;2023-10-13T02:03:13;21.71;73.01
74178;DHT22;62540;48.456;-4.456;2023-10-13T02:05:47;21.76;72.85
74178;DHT22;62540;48.456;-4.456;2023-10-13T02:08:17;21.74;72.86
74178;DHT22;62540;48.456;-4.456;2023-10-13T02:10:47;21.78;72.99
74178;DHT22;62540;48.456;-4.456;2023-10-13T02:13:14;21.76;72.74
74178;DHT22;62540;48.456;-4.456;2023-10-13T02:15:44;21.79;72.78
74178;DHT22;62540;48.456;-4.456;2023-10-13T02:18:15;21.76;72.70
74178;DHT22;62540;48.456;-4.456;2023-10-13T02:20:51;21.79;72.74
74178;DHT22;62540;48.456;-4.456;2023-10-13T02:23:21;21.85;72.85
74178;DHT22;62540;48.456;-4.456;2023-10-13T02:25:46;21.86;72.68
74178;DHT22;62540;48.456;-4.456;2023-10-13T02:28:12;21.85;72.77
74178;DHT22;62540;48.456;-4.456;2023-10-13T02:30:46;21.88;72.71
74178;DHT22;62540;48.456;-4.456;2023-10-13T02:33:16;21.90;72.53
74178;DHT22;62540;48.456;-4.456;2023-10-13T02:35:50;21.85;72.31
74178;DHT22;62540;48.456;-4.456;2023-10-13T02:38:21;21.83;72.36
74178;DHT22;62540;48.456;-4.456;2023-10-13T02:40:54;21.86;72.20
74178;DHT22;62540;48.456;-4.456;2023-10-13T02:43:21;21.88;71.72
74178;DHT22;62540;48.456;-4.456;2023-10-13T02:45:54;21.89;72.04
74178;DHT22;62540;48.456;-4.456;2023-10-13T02:48:23;21.85;71.74
74178;DHT22;62540;48.456;-4.456;2023-10-13T02:50:56;21.79;71.95
74178;DHT22;62540;48.456;-4.456;2023-10-13T02:53:22;21.83;72.05
74178;DHT22;62540;48.456;-4.456;2023-10-13T02:58:17;21.75;72.00
74178;DHT22;62540;48.456;-4.456;2023-10-13T03:00:43;21.69;72.22
74178;DHT22;62540;48.456;-4.456;2023-10-13T03:03:09;21.69;72.31
74178;DHT22;62540;48.456;-4.456;2023-10-13T03:05:35;21.63;72.27
74178;DHT22;62540;48.456;-4.456;2023-10-13T03:08:04;21.59;72.48
74178;DHT22;62540;48.456;-4.456;2023-10-13T03:10:30;21.61;72.31
74178;DHT22;62540;48.456;-4.456;2023-10-13T03:12:55;21.59;71.90
74178;DHT22;62540;48.456;-4.456;2023-10-13T03:15:21;21.61;71.66
74178;DHT22;62540;48.456;-4.456;2023-10-13T03:17:54;21.62;70.47
74178;DHT22;62540;48.456;-4.456;2023-10-13T03:20:20;21.59;70.68
74178;DHT22;62540;48.456;-4.456;2023-10-13T03:22:55;21.62;69.65
74178;DHT22;62540;48.456;-4.456;2023-10-13T03:25:21;21.65;69.09
74178;DHT22;62540;48.456;-4.456;2023-10-13T03:27:54;21.59;68.61
74178;DHT22;62540;48.456;-4.456;2023-10-13T03:30:20;21.62;68.93
74178;DHT22;62540;48.456;-4.456;2023-10-13T03:32:55;21.59;68.32
74178;DHT22;62540;48.456;-4.456;2023-10-13T03:35:22;21.59;68.84
74178;DHT22;62540;48.456;-4.456;2023-10-13T03:37:54;21.63;68.81
74178;DHT22;62540;48.456;-4.456;2023-10-13T03:40:21;21.69;68.91
74178;DHT22;62540;48.456;-4.456;2023-10-13T03:45:43;21.72;68.34
74178;DHT22;62540;48.456;-4.456;2023-10-13T03:48:14;21.75;68.39
74178;DHT22;62540;48.456;-4.456;2023-10-13T03:50:53;21.78;68.59
74178;DHT22;62540;48.456;-4.456;2023-10-13T03:53:40;21.76;68.09
74178;DHT22;62540;48.456;-4.456;2023-10-13T03:56:24;21.82;68.19
74178;DHT22;62540;48.456;-4.456;2023-10-13T03:59:05;21.82;68.57
74178;DHT22;62540;48.456;-4.456;2023-10-13T04:01:35;21.81;68.86
74178;DHT22;62540;48.456;-4.456;2023-10-13T04:04:17;21.78;69.31
74178;DHT22;62540;48.456;-4.456;2023-10-13T04:07:15;21.83;69.47
74178;DHT22;62540;48.456;-4.456;2023-10-13T04:09:59;21.86;69.46
74178;DHT22;62540;48.456;-4.456;2023-10-13T04:12:43;21.88;69.18
74178;DHT22;62540;48.456;-4.456;2023-10-13T04:15:27;21.89;69.14
74178;DHT22;62540;48.456;-4.456;2023-10-13T04:18:02;21.92;69.31
74178;DHT22;62540;48.456;-4.456;2023-10-13T04:20:40;21.92;69.53
74178;DHT22;62540;48.456;-4.456;2023-10-13T04:23:11;21.88;69.45
74178;DHT22;62540;48.456;-4.456;2023-10-13T04:25:51;21.83;69.18
74178;DHT22;62540;48.456;-4.456;2023-10-13T04:28:16;21.92;68.94
74178;DHT22;62540;48.456;-4.456;2023-10-13T04:31:00;21.92;69.05
74178;DHT22;62540;48.456;-4.456;2023-10-13T04:33:37;21.92;69.38
74178;DHT22;62540;48.456;-4.456;2023-10-13T04:36:16;21.95;69.59
74178;DHT22;62540;48.456;-4.456;2023-10-13T04:38:58;21.96;69.77
74178;DHT22;62540;48.456;-4.456;2023-10-13T04:41:36;21.97;69.98
74178;DHT22;62540;48.456;-4.456;2023-10-13T04:44:16;21.88;70.46
74178;DHT22;62540;48.456;-4.456;2023-10-13T04:47:01;21.93;70.61
74178;DHT22;62540;48.456;-4.456;2023-10-13T04:49:28;21.92;70.66
74178;DHT22;62540;48.456;-4.456;2023-10-13T04:52:09;21.86;71.26
74178;DHT22;62540;48.456;-4.456;2023-10-13T04:54:44;21.83;71.69
74178;DHT22;62540;48.456;-4.456;2023-10-13T04:57:23;21.89;71.69
74178;DHT22;62540;48.456;-4.456;2023-10-13T04:59:52;21.92;71.80
74178;DHT22;62540;48.456;-4.456;2023-10-13T05:02:37;21.88;72.36
74178;DHT22;62540;48.456;-4.456;2023-10-13T05:05:12;21.81;72.85
74178;DHT22;62540;48.456;-4.456;2023-10-13T05:07:41;21.82;73.20
74178;DHT22;62540;48.456;-4.456;2023-10-13T05:10:25;21.78;73.30
74178;DHT22;62540;48.456;-4.456;2023-10-13T05:13:09;21.83;73.44
74178;DHT22;62540;48.456;-4.456;2023-10-13T05:15:53;21.76;74.32
74178;DHT22;62540;48.456;-4.456;2023-10-13T05:18:37;21.81;74.22
74178;DHT22;62540;48.456;-4.456;2023-10-13T05:21:21;21.76;75.09
74178;DHT22;62540;48.456;-4.456;2023-10-13T05:24:05;21.76;75.04
74178;DHT22;62540;48.456;-4.456;2023-10-13T05:26:51;21.68;75.55
74178;DHT22;62540;48.456;-4.456;2023-10-13T05:29:38;21.61;76.07
74178;DHT22;62540;48.456;-4.456;2023-10-13T05:32:22;21.54;77.02
74178;DHT22;62540;48.456;-4.456;2023-10-13T05:35:06;21.48;77.22
74178;DHT22;62540;48.456;-4.456;2023-10-13T05:37:49;21.47;77.60
74178;DHT22;62540;48.456;-4.456;2023-10-13T05:40:33;21.51;77.45
74178;DHT22;62540;48.456;-4.456;2023-10-13T05:43:17;21.44;77.90
74178;DHT22;62540;48.456;-4.456;2023-10-13T05:46:03;21.37;78.00
74178;DHT22;62540;48.456;-4.456;2023-10-13T05:48:47;21.35;78.17
74178;DHT22;62540;48.456;-4.456;2023-10-13T05:51:28;21.35;77.80
74178;DHT22;62540;48.456;-4.456;2023-10-13T05:54:10;21.38;78.11
74178;DHT22;62540;48.456;-4.456;2023-10-13T05:59:30;21.21;79.07
74178;DHT22;62540;48.456;-4.456;2023-10-13T06:02:16;21.30;79.32
74178;DHT22;62540;48.456;-4.456;2023-10-13T06:05:07;21.27;79.64
74178;DHT22;62540;48.456;-4.456;2023-10-13T06:07:51;21.20;79.88
74178;DHT22;62540;48.456;-4.456;2023-10-13T06:10:36;21.15;80.28
74178;DHT22;62540;48.456;-4.456;2023-10-13T06:13:21;21.14;80.20
74178;DHT22;62540;48.456;-4.456;2023-10-13T06:16:12;21.26;79.79
74178;DHT22;62540;48.456;-4.456;2023-10-13T06:18:56;21.20;79.87
74178;DHT22;62540;48.456;-4.456;2023-10-13T06:21:42;21.23;79.77
74178;DHT22;62540;48.456;-4.456;2023-10-13T06:24:26;21.21;79.69
74178;DHT22;62540;48.456;-4.456;2023-10-13T06:27:10;21.21;80.08
74178;DHT22;62540;48.456;-4.456;2023-10-13T06:29:55;21.15;80.22
74178;DHT22;62540;48.456;-4.456;2023-10-13T06:32:22;21.14;80.10
74178;DHT22;62540;48.456;-4.456;2023-10-13T06:34:55;21.06;80.46
74178;DHT22;62540;48.456;-4.456;2023-10-13T06:37:24;21.06;80.49
74178;DHT22;62540;48.456;-4.456;2023-10-13T06:39:50;21.01;80.34
74178;DHT22;62540;48.456;-4.456;2023-10-13T06:42:16;21.04;80.58
74178;DHT22;62540;48.456;-4.456;2023-10-13T06:44:43;20.93;80.99
74178;DHT22;62540;48.456;-4.456;2023-10-13T06:47:12;20.91;81.18
74178;DHT22;62540;48.456;-4.456;2023-10-13T06:49:41;20.87;80.90
74178;DHT22;62540;48.456;-4.456;2023-10-13T06:52:11;20.81;81.32
74178;DHT22;62540;48.456;-4.456;2023-10-13T06:54:37;20.84;81.17
74178;DHT22;62540;48.456;-4.456;2023-10-13T06:57:05;20.87;81.23
74178;DHT22;62540;48.456;-4.456;2023-10-13T06:59:33;20.87;81.36
74178;DHT22;62540;48.456;-4.456;2023-10-13T07:02:00;20.90;81.09
74178;DHT22;62540;48.456;-4.456;2023-10-13T07:04:31;20.84;81.37
74178;DHT22;62540;48.456;-4.456;2023-10-13T07:06:56;20.87;81.20
74178;DHT22;62540;48.456;-4.456;2023-10-13T07:09:22;20.84;81.30
74178;DHT22;62540;48.456;-4.456;2023-10-13T07:12:03;20.79;81.44
74178;DHT22;62540;48.456;-4.456;2023-10-13T07:14:32;20.79;81.32
74178;DHT22;62540;48.456;-4.456;2023-10-13T07:17:04;20.79;81.32
74178;DHT22;62540;48.456;-4.456;2023-10-13T07:19:30;20.76;81.29
74178;DHT22;62540;48.456;-4.456;2023-10-13T07:21:57;20.73;81.38
74178;DHT22;62540;48.456;-4.456;2023-10-13T07:24:29;20.81;81.14
74178;DHT22;62540;48.456;-4.456;2023-10-13T07:26:58;20.86;80.84
74178;DHT22;62540;48.456;-4.456;2023-10-13T07:29:33;20.90;80.61
74178;DHT22;62540;48.456;-4.456;2023-10-13T07:32:02;20.86;80.54
74178;DHT22;62540;48.456;-4.456;2023-10-13T07:34:38;20.90;80.34
74178;DHT22;62540;48.456;-4.456;2023-10-13T07:37:04;20.87;80.41
74178;DHT22;62540;48.456;-4.456;2023-10-13T07:39:33;20.90;80.35
74178;DHT22;62540;48.456;-4.456;2023-10-13T07:42:04;20.97;80.07
74178;DHT22;62540;48.456;-4.456;2023-10-13T07:44:33;20.91;80.16
74178;DHT22;62540;48.456;-4.456;2023-10-13T07:47:00;20.86;80.31
74178;DHT22;62540;48.456;-4.456;2023-10-13T07:49:36;20.89;80.24
74178;DHT22;62540;48.456;-4.456;2023-10-13T07:52:06;20.87;80.31
74178;DHT22;62540;48.456;-4.456;2023-10-13T07:54:48;20.91;80.01
74178;DHT22;62540;48.456;-4.456;2023-10-13T07:57:34;20.77;80.25
74178;DHT22;62540;48.456;-4.456;2023-10-13T07:59:59;20.70;80.50
74178;DHT22;62540;48.456;-4.456;2023-10-13T08:02:37;20.70;80.58
74178;DHT22;62540;48.456;-4.456;2023-10-13T08:05:16;20.75;80.31
74178;DHT22;62540;48.456;-4.456;2023-10-13T08:07:54;20.76;80.06
74178;DHT22;62540;48.456;-4.456;2023-10-13T08:10:21;20.73;79.98
74178;DHT22;62540;48.456;-4.456;2023-10-13T08:12:52;20.81;79.93
74178;DHT22;62540;48.456;-4.456;2023-10-13T08:15:19;20.91;79.52
74178;DHT22;62540;48.456;-4.456;2023-10-13T08:17:59;20.99;79.39
74178;DHT22;62540;48.456;-4.456;2023-10-13T08:20:25;21.01;79.08
74178;DHT22;62540;48.456;-4.456;2023-10-13T08:22:55;21.06;78.95
74178;DHT22;62540;48.456;-4.456;2023-10-13T08:25:38;21.23;78.70
74178;DHT22;62540;48.456;-4.456;2023-10-13T08:28:22;21.35;78.51
74178;DHT22;62540;48.456;-4.456;2023-10-13T08:31:06;21.52;78.05
74178;DHT22;62540;48.456;-4.456;2023-10-13T08:33:48;21.55;77.50
74178;DHT22;62540;48.456;-4.456;2023-10-13T08:36:14;21.54;77.25
74178;DHT22;62540;48.456;-4.456;2023-10-13T08:38:54;21.58;77.23
74178;DHT22;62540;48.456;-4.456;2023-10-13T08:41:21;21.52;77.36
74178;DHT22;62540;48.456;-4.456;2023-10-13T08:43:52;21.30;77.60
74178;DHT22;62540;48.456;-4.456;2023-10-13T08:46:30;21.26;77.70
74178;DHT22;62540;48.456;-4.456;2023-10-13T08:49:05;21.28;77.88
74178;DHT22;62540;48.456;-4.456;2023-10-13T08:51:42;21.26;77.68
74178;DHT22;62540;48.456;-4.456;2023-10-13T08:54:32;21.31;77.55
74178;DHT22;62540;48.456;-4.456;2023-10-13T08:57:04;21.35;77.44
74178;DHT22;62540;48.456;-4.456;2023-10-13T08:59:55;21.30;77.22
74178;DHT22;62540;48.456;-4.456;2023-10-13T09:02:22;21.21;77.33
74178;DHT22;62540;48.456;-4.456;2023-10-13T09:05:09;21.18;77.28
74178;DHT22;62540;48.456;-4.456;2023-10-13T09:07:54;21.26;76.95
74178;DHT22;62540;48.456;-4.456;2023-10-13T09:10:24;21.23;76.97
74178;DHT22;62540;48.456;-4.456;2023-10-13T09:12:58;21.37;76.71
74178;DHT22;62540;48.456;-4.456;2023-10-13T09:15:29;21.44;76.46
74178;DHT22;62540;48.456;-4.456;2023-10-13T09:18:27;21.41;75.67
74178;DHT22;62540;48.456;-4.456;2023-10-13T09:21:12;21.39;75.59
74178;DHT22;62540;48.456;-4.456;2023-10-13T09:23:56;21.35;75.96
74178;DHT22;62540;48.456;-4.456;2023-10-13T09:26:41;21.32;75.67
74178;DHT22;62540;48.456;-4.456;2023-10-13T09:29:19;21.35;75.66
74178;DHT22;62540;48.456;-4.456;2023-10-13T09:31:46;21.44;75.77
74178;DHT22;62540;48.456;-4.456;2023-10-13T09:34:21;21.47;75.32
74178;DHT22;62540;48.456;-4.456;2023-10-13T09:36:49;21.57;75.34
74178;DHT22;62540;48.456;-4.456;2023-10-13T09:39:23;21.58;74.80
74178;DHT22;62540;48.456;-4.456;2023-10-13T09:42:11;21.72;74.69
74178;DHT22;62540;48.456;-4.456;2023-10-13T09:44:37;21.72;74.32
74178;DHT22;62540;48.456;-4.456;2023-10-13T09:47:09;21.81;74.00
74178;DHT22;62540;48.456;-4.456;2023-10-13T09:49:44;22.00;73.64
74178;DHT22;62540;48.456;-4.456;2023-10-13T09:52:15;22.29;73.08
74178;DHT22;62540;48.456;-4.456;2023-10-13T09:55:21;22.55;71.53
74178;DHT22;62540;48.456;-4.456;2023-10-13T09:57:58;22.63;72.25
74178;DHT22;62540;48.456;-4.456;2023-10-13T10:00:32;22.50;71.41
74178;DHT22;62540;48.456;-4.456;2023-10-13T10:03:13;22.30;71.81
74178;DHT22;62540;48.456;-4.456;2023-10-13T10:06:02;22.26;72.01
74178;DHT22;62540;48.456;-4.456;2023-10-13T10:08:43;22.00;72.99
74178;DHT22;62540;48.456;-4.456;2023-10-13T10:11:27;22.20;73.02
74178;DHT22;62540;48.456;-4.456;2023-10-13T10:14:15;22.10;72.73
74178;DHT22;62540;48.456;-4.456;2023-10-13T10:17:06;22.03;72.89
74178;DHT22;62540;48.456;-4.456;2023-10-13T10:19:33;22.02;73.19
74178;DHT22;62540;48.456;-4.456;2023-10-13T10:22:04;21.89;72.81
74178;DHT22;62540;48.456;-4.456;2023-10-13T10:24:43;21.90;72.91
74178;DHT22;62540;48.456;-4.456;2023-10-13T10:27:09;21.74;73.01
74178;DHT22;62540;48.456;-4.456;2023-10-13T10:29:40;21.65;73.18
74178;DHT22;62540;48.456;-4.456;2023-10-13T10:32:15;21.81;73.06
74178;DHT22;62540;48.456;-4.456;2023-10-13T10:34:41;21.86;72.77
74178;DHT22;62540;48.456;-4.456;2023-10-13T10:37:07;21.68;72.85
74178;DHT22;62540;48.456;-4.456;2023-10-13T10:39:37;21.58;73.47
74178;DHT22;62540;48.456;-4.456;2023-10-13T10:42:14;21.59;73.53
74178;DHT22;62540;48.456;-4.456;2023-10-13T10:44:54;21.48;73.40
74178;DHT22;62540;48.456;-4.456;2023-10-13T10:47:30;21.47;73.59
74178;DHT22;62540;48.456;-4.456;2023-10-13T10:50:00;21.47;73.82
74178;DHT22;62540;48.456;-4.456;2023-10-13T10:52:33;21.45;73.94
74178;DHT22;62540;48.456;-4.456;2023-10-13T10:55:03;21.34;74.17
74178;DHT22;62540;48.456;-4.456;2023-10-13T10:57:44;21.38;74.12
74178;DHT22;62540;48.456;-4.456;2023-10-13T11:00:19;21.45;74.02
74178;DHT22;62540;48.456;-4.456;2023-10-13T11:02:56;21.54;72.84
74178;DHT22;62540;48.456;-4.456;2023-10-13T11:05:22;21.62;72.79
74178;DHT22;62540;48.456;-4.456;2023-10-13T11:07:49;21.65;72.58
74178;DHT22;62540;48.456;-4.456;2023-10-13T11:10:16;21.76;71.81
74178;DHT22;62540;48.456;-4.456;2023-10-13T11:13:03;21.63;71.60
74178;DHT22;62540;48.456;-4.456;2023-10-13T11:15:43;21.78;71.12
74178;DHT22;62540;48.456;-4.456;2023-10-13T11:18:11;21.96;70.84
74178;DHT22;62540;48.456;-4.456;2023-10-13T11:20:49;21.78;70.28
74178;DHT22;62540;48.456;-4.456;2023-10-13T11:23:19;21.82;70.74
74178;DHT22;62540;48.456;-4.456;2023-10-13T11:25:59;21.74;70.71
74178;DHT22;62540;48.456;-4.456;2023-10-13T11:28:24;21.59;71.07
74178;DHT22;62540;48.456;-4.456;2023-10-13T11:30:54;21.61;71.04
74178;DHT22;62540;48.456;-4.456;2023-10-13T11:33:27;21.52;71.11
74178;DHT22;62540;48.456;-4.456;2023-10-13T11:35:56;21.58;71.27
74178;DHT22;62540;48.456;-4.456;2023-10-13T11:41:01;21.55;71.11
74178;DHT22;62540;48.456;-4.456;2023-10-13T11:46:24;21.49;70.95
74178;DHT22;62540;48.456;-4.456;2023-10-13T11:51:47;21.82;70.78
74178;DHT22;62540;48.456;-4.456;2023-10-13T11:54:17;21.86;70.28
74178;DHT22;62540;48.456;-4.456;2023-10-13T11:56:46;21.81;70.53
74178;DHT22;62540;48.456;-4.456;2023-10-13T11:59:12;21.72;70.80
74178;DHT22;62540;48.456;-4.456;2023-10-13T12:01:48;21.85;70.41
74178;DHT22;62540;48.456;-4.456;2023-10-13T12:04:33;21.63;70.67
74178;DHT22;62540;48.456;-4.456;2023-10-13T12:06:59;21.63;70.93
74178;DHT22;62540;48.456;-4.456;2023-10-13T12:09:44;21.48;71.63
74178;DHT22;62540;48.456;-4.456;2023-10-13T12:12:24;21.45;71.92
74178;DHT22;62540;48.456;-4.456;2023-10-13T12:14:51;21.42;71.97
74178;DHT22;62540;48.456;-4.456;2023-10-13T12:17:26;21.52;72.06
74178;DHT22;62540;48.456;-4.456;2023-10-13T12:19:56;21.47;71.73
74178;DHT22;62540;48.456;-4.456;2023-10-13T12:22:22;21.47;71.27
74178;DHT22;62540;48.456;-4.456;2023-10-13T12:24:55;21.47;71.16
74178;DHT22;62540;48.456;-4.456;2023-10-13T12:27:20;21.48;71.01
74178;DHT22;62540;48.456;-4.456;2023-10-13T12:29:49;21.42;71.33
74178;DHT22;62540;48.456;-4.456;2023-10-13T12:32:19;21.34;72.28
74178;DHT22;62540;48.456;-4.456;2023-10-13T12:34:51;21.24;73.19
74178;DHT22;62540;48.456;-4.456;2023-10-13T12:37:27;21.11;73.22
74178;DHT22;62540;48.456;-4.456;2023-10-13T12:40:19;21.14;72.88
74178;DHT22;62540;48.456;-4.456;2023-10-13T12:43:04;21.11;72.38
74178;DHT22;62540;48.456;-4.456;2023-10-13T12:45:50;20.94;72.36
74178;DHT22;62540;48.456;-4.456;2023-10-13T12:48:35;20.86;72.91
74178;DHT22;62540;48.456;-4.456;2023-10-13T12:51:19;20.90;72.63
74178;DHT22;62540;48.456;-4.456;2023-10-13T12:53:54;20.79;72.82
74178;DHT22;62540;48.456;-4.456;2023-10-13T12:56:20;20.96;73.04
74178;DHT22;62540;48.456;-4.456;2023-10-13T12:58:54;21.03;72.41
74178;DHT22;62540;48.456;-4.456;2023-10-13T13:01:24;21.08;72.36
74178;DHT22;62540;48.456;-4.456;2023-10-13T13:03:52;20.99;72.32
74178;DHT22;62540;48.456;-4.456;2023-10-13T13:06:23;20.94;72.83
74178;DHT22;62540;48.456;-4.456;2023-10-13T13:08:53;20.86;74.08
74178;DHT22;62540;48.456;-4.456;2023-10-13T13:11:19;20.77;75.28
74178;DHT22;62540;48.456;-4.456;2023-10-13T13:13:44;20.69;75.37
74178;DHT22;62540;48.456;-4.456;2023-10-13T13:16:15;20.66;75.56
74178;DHT22;62540;48.456;-4.456;2023-10-13T13:18:44;20.41;76.78
74178;DHT22;62540;48.456;-4.456;2023-10-13T13:21:09;20.21;77.99
74178;DHT22;62540;48.456;-4.456;2023-10-13T13:23:38;20.17;78.09
74178;DHT22;62540;48.456;-4.456;2023-10-13T13:26:05;20.05;77.91
74178;DHT22;62540;48.456;-4.456;2023-10-13T13:28:41;19.91;78.27
74178;DHT22;62540;48.456;-4.456;2023-10-13T13:31:08;19.81;78.73
74178;DHT22;62540;48.456;-4.456;2023-10-13T13:33:34;19.87;78.74
74178;DHT22;62540;48.456;-4.456;2023-10-13T13:36:07;19.84;79.19
74178;DHT22;62540;48.456;-4.456;2023-10-13T13:38:38;19.70;79.91
74178;DHT22;62540;48.456;-4.456;2023-10-13T13:41:11;19.84;79.17
74178;DHT22;62540;48.456;-4.456;2023-10-13T13:43:40;19.75;79.63
74178;DHT22;62540;48.456;-4.456;2023-10-13T13:46:19;19.70;79.97
74178;DHT22;62540;48.456;-4.456;2023-10-13T13:48:45;19.70;79.86
74178;DHT22;62540;48.456;-4.456;2023-10-13T13:51:13;19.66;79.80
74178;DHT22;62540;48.456;-4.456;2023-10-13T13:53:45;19.62;79.88
74178;DHT22;62540;48.456;-4.456;2023-10-13T13:56:11;19.66;79.66
74178;DHT22;62540;48.456;-4.456;2023-10-13T13:58:42;19.66;79.75
74178;DHT22;62540;48.456;-4.456;2023-10-13T14:01:07;19.63;79.83
74178;DHT22;62540;48.456;-4.456;2023-10-13T14:03:49;19.47;80.48
74178;DHT22;62540;48.456;-4.456;2023-10-13T14:06:23;19.52;80.41
74178;DHT22;62540;48.456;-4.456;2023-10-13T14:08:53;19.49;80.47
74178;DHT22;62540;48.456;-4.456;2023-10-13T14:11:25;19.50;80.39
74178;DHT22;62540;48.456;-4.456;2023-10-13T14:14:03;19.56;80.34
74178;DHT22;62540;48.456;-4.456;2023-10-13T14:16:42;19.56;80.83
74178;DHT22;62540;48.456;-4.456;2023-10-13T14:19:11;19.39;81.25
74178;DHT22;62540;48.456;-4.456;2023-10-13T14:21:37;19.33;81.62
74178;DHT22;62540;48.456;-4.456;2023-10-13T14:24:03;19.33;81.88
74178;DHT22;62540;48.456;-4.456;2023-10-13T14:26:38;19.40;81.63
74178;DHT22;62540;48.456;-4.456;2023-10-13T14:29:03;19.37;81.90
74178;DHT22;62540;48.456;-4.456;2023-10-13T14:31:34;19.50;81.93
74178;DHT22;62540;48.456;-4.456;2023-10-13T14:34:01;19.52;81.71
74178;DHT22;62540;48.456;-4.456;2023-10-13T14:36:27;19.45;82.04
74178;DHT22;62540;48.456;-4.456;2023-10-13T14:39:00;19.46;81.88
74178;DHT22;62540;48.456;-4.456;2023-10-13T14:41:26;19.52;81.70
74178;DHT22;62540;48.456;-4.456;2023-10-13T14:43:51;19.52;81.50
74178;DHT22;62540;48.456;-4.456;2023-10-13T14:46:18;19.53;81.17
74178;DHT22;62540;48.456;-4.456;2023-10-13T14:48:51;19.53;81.29
74178;DHT22;62540;48.456;-4.456;2023-10-13T14:51:17;19.53;81.26
74178;DHT22;62540;48.456;-4.456;2023-10-13T14:53:44;19.62;80.90
74178;DHT22;62540;48.456;-4.456;2023-10-13T14:56:13;19.64;80.78
74178;DHT22;62540;48.456;-4.456;2023-10-13T14:58:40;19.64;80.81
74178;DHT22;62540;48.456;-4.456;2023-10-13T15:01:21;19.73;80.55
74178;DHT22;62540;48.456;-4.456;2023-10-13T15:03:49;19.75;80.24
74178;DHT22;62540;48.456;-4.456;2023-10-13T15:06:19;19.73;80.62
74178;DHT22;62540;48.456;-4.456;2023-10-13T15:08:55;19.75;80.46
74178;DHT22;62540;48.456;-4.456;2023-10-13T15:11:22;19.77;80.67
74178;DHT22;62540;48.456;-4.456;2023-10-13T15:13:52;19.81;80.75
74178;DHT22;62540;48.456;-4.456;2023-10-13T15:16:20;19.87;80.42
74178;DHT22;62540;48.456;-4.456;2023-10-13T15:18:47;19.93;80.36
74178;DHT22;62540;48.456;-4.456;2023-10-13T15:21:22;20.00;80.13
74178;DHT22;62540;48.456;-4.456;2023-10-13T15:23:52;20.00;80.21
74178;DHT22;62540;48.456;-4.456;2023-10-13T15:26:19;19.98;80.00
74178;DHT22;62540;48.456;-4.456;2023-10-13T15:28:47;19.94;80.31
74178;DHT22;62540;48.456;-4.456;2023-10-13T15:31:19;19.98;80.33
74178;DHT22;62540;48.456;-4.456;2023-10-13T15:34:01;19.97;80.22
74178;DHT22;62540;48.456;-4.456;2023-10-13T15:36:32;19.94;80.28
74178;DHT22;62540;48.456;-4.456;2023-10-13T15:38:58;19.83;80.56
74178;DHT22;62540;48.456;-4.456;2023-10-13T15:41:28;19.90;80.25
74178;DHT22;62540;48.456;-4.456;2023-10-13T15:43:54;19.91;80.21
74178;DHT22;62540;48.456;-4.456;2023-10-13T15:46:21;19.93;80.38
74178;DHT22;62540;48.456;-4.456;2023-10-13T15:48:51;19.91;80.17
74178;DHT22;62540;48.456;-4.456;2023-10-13T15:51:17;19.93;80.16
74178;DHT22;62540;48.456;-4.456;2023-10-13T15:53:43;19.94;80.04
74178;DHT22;62540;48.456;-4.456;2023-10-13T15:56:11;19.88;80.03
74178;DHT22;62540;48.456;-4.456;2023-10-13T15:58:45;19.84;80.11
74178;DHT22;62540;48.456;-4.456;2023-10-13T16:01:11;19.78;80.14
74178;DHT22;62540;48.456;-4.456;2023-10-13T16:03:43;19.75;80.14
74178;DHT22;62540;48.456;-4.456;2023-10-13T16:06:12;19.69;80.13
74178;DHT22;62540;48.456;-4.456;2023-10-13T16:08:42;19.69;80.25